Time;durP1;ratioP1;P1;durP2;ratioP2;P2;SDS_P1;SDS_P2;PMS_P1;PMS_P2;Temp;Humidity;BMP_temperature;BMP_pressure;BME280_temperature;BME280_humidity;BME280_pressure;Samples;Min_cycle;Max_cycle;Signal;HPM_P1;HPM_P2
2022/05/24 00:01:54;;;;;;;0.40;0.22;;;21.50;51.70;;;;;;6195623;28;20493;-68
2022/05/24 00:04:55;;;;;;;0.28;0.28;;;21.50;51.70;;;;;;6195841;28;20034;-67
2022/05/24 00:07:55;;;;;;;0.40;0.28;;;21.50;51.70;;;;;;6195886;28;20028;-67
2022/05/24 00:10:56;;;;;;;0.30;0.30;;;21.50;51.70;;;;;;6195840;28;20034;-67
2022/05/24 00:13:56;;;;;;;0.25;0.25;;;21.50;51.70;;;;;;6195373;28;20070;-67
2022/05/24 00:16:57;;;;;;;0.30;0.30;;;21.50;51.80;;;;;;6195610;28;20026;-67
2022/05/24 00:19:57;;;;;;;0.30;0.30;;;21.50;51.70;;;;;;6195248;28;20023;-67
2022/05/24 00:22:58;;;;;;;0.65;0.40;;;21.50;51.70;;;;;;6195392;28;20043;-67
2022/05/24 00:26:05;;;;;;;0.17;0.17;;;21.50;51.70;;;;;;6193884;28;20077;-67
2022/05/24 00:29:05;;;;;;;0.30;0.30;;;21.50;51.70;;;;;;6195577;28;20053;-67
2022/05/24 00:32:06;;;;;;;0.45;0.30;;;21.50;51.80;;;;;;6210733;28;20555;-67
2022/05/24 00:35:08;;;;;;;0.30;0.30;;;21.50;51.80;;;;;;6219349;28;20062;-67
2022/05/24 00:38:11;;;;;;;0.32;0.32;;;21.50;51.70;;;;;;6219449;28;20695;-68
2022/05/24 00:41:16;;;;;;;0.20;0.20;;;21.50;51.70;;;;;;6219326;28;20057;-67
2022/05/24 00:44:23;;;;;;;0.68;0.28;;;21.50;51.70;;;;;;6219093;28;20022;-67
2022/05/24 00:47:33;;;;;;;0.20;0.20;;;21.50;51.70;;;;;;6219343;28;20038;-67
2022/05/24 00:50:39;;;;;;;0.20;0.20;;;21.50;51.70;;;;;;6219512;28;20084;-68
2022/05/24 00:53:45;;;;;;;0.30;0.30;;;21.50;51.80;;;;;;6184020;28;20026;-67
2022/05/24 00:57:09;;;;;;;0.32;0.30;;;21.50;51.80;;;;;;6194795;28;20036;-67
2022/05/24 01:00:12;;;;;;;0.30;0.30;;;21.50;51.70;;;;;;6194453;28;20026;-68
2022/05/24 01:03:13;;;;;;;0.30;0.30;;;21.50;51.70;;;;;;6194264;28;20101;-67
2022/05/24 01:06:14;;;;;;;0.35;0.30;;;21.50;51.80;;;;;;6194305;28;20028;-67
2022/05/24 01:09:30;;;;;;;0.30;0.30;;;21.50;51.70;;;;;;6176846;28;20578;-68
2022/05/24 01:12:36;;;;;;;0.30;0.30;;;21.50;51.80;;;;;;6194551;28;20053;-67
2022/05/24 01:15:39;;;;;;;0.30;0.30;;;21.50;51.80;;;;;;6176838;28;20386;-67
2022/05/24 01:18:40;;;;;;;0.35;0.35;;;21.50;51.80;;;;;;6194319;28;20497;-67
2022/05/24 01:21:40;;;;;;;0.30;0.30;;;21.50;51.80;;;;;;6194619;28;20026;-67
2022/05/24 01:24:50;;;;;;;0.38;0.32;;;21.50;51.80;;;;;;6208971;28;20409;-67
2022/05/24 01:27:51;;;;;;;0.47;0.30;;;21.50;51.80;;;;;;6194276;28;20030;-67
2022/05/24 01:30:53;;;;;;;0.60;0.30;;;21.50;51.80;;;;;;6199884;28;20516;-67
2022/05/24 01:37:14;;;;;;;0.38;0.30;;;21.50;51.80;;;;;;6193565;28;20509;-67
2022/05/24 01:40:15;;;;;;;0.40;0.40;;;21.50;51.80;;;;;;6194281;28;20023;-67
2022/05/24 01:43:22;;;;;;;0.35;0.32;;;21.50;51.80;;;;;;6194072;28;20118;-67
2022/05/24 01:46:29;;;;;;;0.85;0.40;;;21.50;51.80;;;;;;6194201;28;20027;-67
2022/05/24 01:49:39;;;;;;;0.40;0.40;;;21.50;51.90;;;;;;6194539;28;20035;-67
2022/05/24 01:52:55;;;;;;;0.20;0.20;;;21.50;51.80;;;;;;6176443;28;20413;-67
2022/05/24 01:55:59;;;;;;;0.60;0.20;;;21.50;51.80;;;;;;6193683;28;20264;-67
2022/05/24 01:59:01;;;;;;;0.28;0.28;;;21.50;51.80;;;;;;6176571;28;20413;-67
2022/05/24 02:02:01;;;;;;;1.13;0.30;;;21.50;51.80;;;;;;6193765;28;20029;-67
2022/05/24 02:05:03;;;;;;;0.38;0.35;;;21.50;51.80;;;;;;6193829;28;20034;-67
2022/05/24 02:08:07;;;;;;;0.30;0.30;;;21.50;51.80;;;;;;6193645;28;20133;-67
2022/05/24 02:11:07;;;;;;;0.25;0.25;;;21.50;51.90;;;;;;6194174;28;20038;-67
2022/05/24 02:14:22;;;;;;;0.20;0.20;;;21.50;51.90;;;;;;6197680;28;20027;-67
2022/05/24 02:17:27;;;;;;;0.30;0.30;;;21.50;51.80;;;;;;6198466;28;20120;-67
2022/05/24 02:20:34;;;;;;;0.40;0.40;;;21.50;51.90;;;;;;6198431;28;20038;-67
2022/05/24 02:23:44;;;;;;;0.30;0.22;;;21.50;51.90;;;;;;6198077;28;20382;-67
2022/05/24 02:26:44;;;;;;;0.20;0.20;;;21.50;51.90;;;;;;6197973;28;20128;-67
2022/05/24 02:29:45;;;;;;;0.20;0.20;;;21.50;51.80;;;;;;6197821;28;20056;-67
2022/05/24 02:32:46;;;;;;;0.50;0.30;;;21.50;51.90;;;;;;6219251;28;20029;-67
2022/05/24 02:35:47;;;;;;;0.30;0.30;;;21.50;51.80;;;;;;6221898;28;20071;-67
2022/05/24 02:38:48;;;;;;;0.30;0.30;;;21.50;51.90;;;;;;6222260;28;20022;-67
2022/05/24 02:41:48;;;;;;;0.38;0.38;;;21.50;51.90;;;;;;6220610;28;20443;-67
2022/05/24 02:44:49;;;;;;;0.40;0.30;;;21.50;51.90;;;;;;6222091;28;20100;-67
2022/05/24 02:47:50;;;;;;;0.22;0.22;;;21.50;51.90;;;;;;6221704;28;20038;-67
2022/05/24 02:50:50;;;;;;;0.20;0.20;;;21.50;51.90;;;;;;6222141;28;20152;-67
2022/05/24 02:53:51;;;;;;;0.40;0.30;;;21.50;51.80;;;;;;6203082;28;20030;-67
2022/05/24 02:56:52;;;;;;;0.45;0.30;;;21.50;51.80;;;;;;6197419;28;20031;-68
2022/05/24 02:59:52;;;;;;;0.20;0.20;;;21.50;51.90;;;;;;6197261;28;20027;-67
2022/05/24 03:02:54;;;;;;;0.20;0.20;;;21.50;51.90;;;;;;6197558;28;20045;-68
2022/05/24 03:05:54;;;;;;;0.30;0.30;;;21.50;51.90;;;;;;6197252;28;20030;-67
2022/05/24 03:15:36;;;;;;;0.30;0.30;;;21.50;51.90;;;;;;6196842;28;20026;-67
2022/05/24 03:18:37;;;;;;;0.28;0.28;;;21.50;51.90;;;;;;6197256;28;20432;-67
2022/05/24 03:21:37;;;;;;;0.30;0.30;;;21.50;51.90;;;;;;6196970;28;20486;-67
2022/05/24 03:24:38;;;;;;;0.60;0.40;;;21.50;52.00;;;;;;6196698;28;20022;-67
2022/05/24 03:27:39;;;;;;;0.38;0.38;;;21.50;51.90;;;;;;6196496;28;20052;-67
2022/05/24 03:30:43;;;;;;;0.20;0.20;;;21.50;51.90;;;;;;6196480;28;20501;-67
2022/05/24 03:33:44;;;;;;;0.30;0.30;;;21.50;51.90;;;;;;6196549;28;20675;-67
2022/05/24 03:36:44;;;;;;;0.20;0.20;;;21.50;51.90;;;;;;6196271;28;20038;-68
2022/05/24 03:39:45;;;;;;;0.25;0.25;;;21.50;51.90;;;;;;6196615;28;20089;-67
2022/05/24 03:42:46;;;;;;;0.68;0.40;;;21.40;51.80;;;;;;6196311;28;20390;-68
2022/05/24 03:45:47;;;;;;;0.30;0.28;;;21.50;51.90;;;;;;6196566;28;20052;-68
2022/05/24 03:48:47;;;;;;;0.35;0.30;;;21.50;52.00;;;;;;6194809;28;20022;-67
2022/05/24 03:51:49;;;;;;;0.52;0.30;;;21.50;51.90;;;;;;6196089;28;20034;-68
2022/05/24 03:54:49;;;;;;;0.40;0.40;;;21.50;51.90;;;;;;6196094;28;20042;-67
2022/05/24 03:58:02;;;;;;;0.65;0.40;;;21.40;51.90;;;;;;6196146;28;20500;-67
2022/05/24 04:01:03;;;;;;;0.30;0.30;;;21.50;52.00;;;;;;6195734;28;20018;-67
2022/05/24 04:04:03;;;;;;;0.50;0.40;;;21.50;52.00;;;;;;6195864;28;20401;-67
2022/05/24 04:07:04;;;;;;;0.20;0.20;;;21.50;52.00;;;;;;6195531;28;20026;-67
2022/05/24 04:10:08;;;;;;;0.30;0.30;;;21.50;52.00;;;;;;6195921;28;20119;-67
2022/05/24 04:13:09;;;;;;;0.80;0.40;;;21.50;51.90;;;;;;6195618;28;20023;-67
2022/05/24 04:16:09;;;;;;;0.50;0.40;;;21.50;51.90;;;;;;6195705;28;20461;-67
2022/05/24 04:19:10;;;;;;;0.30;0.30;;;21.50;51.90;;;;;;6195140;28;20468;-67
2022/05/24 04:22:10;;;;;;;0.40;0.40;;;21.50;52.00;;;;;;6194192;28;20033;-67
2022/05/24 04:25:13;;;;;;;1.00;0.40;;;21.50;52.60;;;;;;6195327;28;20109;-67
2022/05/24 04:28:18;;;;;;;0.30;0.25;;;21.50;51.90;;;;;;6195351;28;20073;-67
2022/05/24 04:31:19;;;;;;;0.20;0.20;;;21.50;52.00;;;;;;6179405;28;20450;-67
2022/05/24 04:34:19;;;;;;;0.32;0.30;;;21.40;51.90;;;;;;6170282;28;20039;-68
2022/05/24 04:37:20;;;;;;;0.30;0.30;;;21.50;52.00;;;;;;6170992;28;20023;-67
2022/05/24 04:42:18;;;;;;;0.30;0.20;;;21.50;52.00;;;;;;6170882;28;20450;-67
2022/05/24 04:43:41;;;;;;;0.30;0.30;;;21.50;52.60;;;;;;6170855;28;20061;-67
2022/05/24 04:50:06;;;;;;;0.30;0.30;;;21.50;52.00;;;;;;6170675;28;20031;-67
2022/05/24 04:53:07;;;;;;;0.20;0.20;;;21.50;52.00;;;;;;6170381;28;20150;-67
2022/05/24 04:56:07;;;;;;;0.40;0.40;;;21.50;52.00;;;;;;6170503;28;20019;-67
2022/05/24 05:03:10;;;;;;;0.30;0.30;;;21.40;51.90;;;;;;6151278;28;20027;-67
2022/05/24 05:06:11;;;;;;;0.45;0.32;;;21.50;52.00;;;;;;6145235;29;20027;-67
2022/05/24 05:09:12;;;;;;;0.40;0.40;;;21.50;52.00;;;;;;6164537;28;20457;-67
2022/05/24 05:12:13;;;;;;;0.30;0.30;;;21.50;52.00;;;;;;6170563;28;20058;-67
2022/05/24 05:15:15;;;;;;;0.50;0.40;;;21.50;52.00;;;;;;6170297;28;20027;-67
2022/05/24 05:18:16;;;;;;;0.50;0.30;;;21.40;51.90;;;;;;6170535;28;20015;-66
2022/05/24 05:21:16;;;;;;;3.13;0.30;;;21.50;52.00;;;;;;6170421;28;20027;-69
2022/05/24 05:24:17;;;;;;;0.65;0.30;;;21.50;52.20;;;;;;6169957;28;20105;-66
2022/05/24 05:27:19;;;;;;;0.85;0.40;;;21.50;52.20;;;;;;6170049;28;20027;-67
2022/05/24 05:33:39;;;;;;;0.40;0.40;;;21.50;52.20;;;;;;6218799;28;20022;-66
2022/05/24 05:36:40;;;;;;;1.85;0.30;;;21.50;52.20;;;;;;6218616;28;20455;-67
2022/05/24 05:39:40;;;;;;;0.40;0.30;;;21.50;52.20;;;;;;6218733;28;20030;-67
2022/05/24 05:42:41;;;;;;;0.40;0.30;;;21.50;52.10;;;;;;6218780;28;20026;-67
2022/05/24 05:45:42;;;;;;;0.30;0.30;;;21.50;52.20;;;;;;6219002;28;20026;-66
2022/05/24 05:48:44;;;;;;;2.65;0.32;;;21.50;52.20;;;;;;6223639;28;20034;-67
2022/05/24 05:51:44;;;;;;;0.50;0.40;;;21.50;52.20;;;;;;6204380;28;20065;-67
2022/05/24 05:54:45;;;;;;;0.40;0.40;;;21.50;52.10;;;;;;6199149;28;20029;-67
2022/05/24 05:57:46;;;;;;;1.45;0.30;;;21.50;52.10;;;;;;6199377;28;20030;-66
2022/05/24 06:00:48;;;;;;;0.30;0.30;;;21.50;52.10;;;;;;6196845;28;20117;-66
2022/05/24 06:03:48;;;;;;;0.30;0.30;;;21.50;52.10;;;;;;6184379;28;20018;-66
2022/05/24 06:06:49;;;;;;;0.47;0.40;;;21.50;52.10;;;;;;6200955;28;20500;-67
2022/05/24 06:09:50;;;;;;;0.40;0.40;;;21.50;52.10;;;;;;6201000;28;20027;-66
2022/05/24 06:12:51;;;;;;;0.45;0.40;;;21.50;52.10;;;;;;6200704;28;20026;-66
2022/05/24 06:15:51;;;;;;;0.55;0.30;;;21.50;52.10;;;;;;6200874;28;20026;-66
2022/05/24 06:18:52;;;;;;;1.08;0.52;;;21.50;52.10;;;;;;6200786;28;20026;-66
2022/05/24 06:21:52;;;;;;;0.70;0.40;;;21.50;52.10;;;;;;6200774;28;20165;-67
2022/05/24 06:24:53;;;;;;;0.80;0.40;;;21.50;52.10;;;;;;6200420;28;20142;-66
2022/05/24 06:27:55;;;;;;;0.40;0.40;;;21.50;52.10;;;;;;6200487;28;20030;-66
2022/05/24 06:30:56;;;;;;;0.55;0.40;;;21.50;52.10;;;;;;6200131;28;20050;-66
2022/05/24 06:33:57;;;;;;;0.32;0.30;;;21.50;52.10;;;;;;6200464;28;20037;-66
2022/05/24 06:36:59;;;;;;;0.40;0.40;;;21.50;52.10;;;;;;6200030;28;20031;-66
2022/05/24 06:39:59;;;;;;;0.30;0.30;;;21.50;52.10;;;;;;6183038;28;20474;-66
2022/05/24 06:43:01;;;;;;;0.68;0.45;;;21.50;52.10;;;;;;6199874;28;20027;-66
2022/05/24 06:46:07;;;;;;;0.47;0.43;;;21.50;52.10;;;;;;6199985;28;20551;-67
2022/05/24 06:49:09;;;;;;;0.82;0.40;;;21.50;52.10;;;;;;6200049;28;20027;-67
2022/05/24 06:52:10;;;;;;;1.17;0.63;;;21.50;52.10;;;;;;6200076;28;20022;-66
2022/05/24 06:55:11;;;;;;;0.50;0.40;;;21.50;52.20;;;;;;6199468;28;20401;-66
2022/05/24 06:58:12;;;;;;;0.55;0.43;;;21.50;52.20;;;;;;6198858;28;20030;-66
2022/05/24 07:04:33;;;;;;;0.77;0.57;;;21.50;52.20;;;;;;6199850;28;20042;-67
2022/05/24 07:07:36;;;;;;;0.88;0.45;;;21.50;52.20;;;;;;6199783;28;20057;-66
2022/05/24 07:10:38;;;;;;;0.40;0.40;;;21.50;52.20;;;;;;6199544;28;20041;-66
2022/05/24 07:13:39;;;;;;;0.82;0.45;;;21.50;52.20;;;;;;6199662;28;20541;-66
2022/05/24 07:16:40;;;;;;;0.50;0.50;;;21.50;52.20;;;;;;6199334;28;20025;-66
2022/05/24 07:19:41;;;;;;;1.13;0.50;;;21.50;52.20;;;;;;6199731;28;20453;-66
2022/05/24 07:22:42;;;;;;;0.45;0.45;;;21.50;52.20;;;;;;6199123;28;20030;-67
2022/05/24 07:25:44;;;;;;;0.98;0.60;;;21.50;52.30;;;;;;6199171;28;20085;-67
2022/05/24 07:28:45;;;;;;;0.75;0.60;;;21.50;52.20;;;;;;6199368;28;20041;-67
2022/05/24 07:31:45;;;;;;;0.80;0.50;;;21.50;52.20;;;;;;6211925;28;20050;-66
2022/05/24 07:34:46;;;;;;;0.40;0.40;;;21.50;52.30;;;;;;6223193;28;20033;-66
2022/05/24 07:37:46;;;;;;;0.68;0.40;;;21.50;52.20;;;;;;6221926;28;20021;-67
2022/05/24 07:47:26;;;;;;;0.45;0.35;;;21.50;52.30;;;;;;6210354;28;20397;-66
2022/05/24 07:50:27;;;;;;;0.70;0.40;;;21.50;52.30;;;;;;6198618;28;20033;-66
2022/05/24 07:53:28;;;;;;;0.45;0.40;;;21.50;52.20;;;;;;6198622;28;20106;-66
2022/05/24 07:56:29;;;;;;;1.70;0.60;;;21.50;52.30;;;;;;6198396;28;20023;-67
2022/05/24 07:59:30;;;;;;;0.80;0.60;;;21.50;52.30;;;;;;6199079;28;20026;-67
2022/05/24 08:02:31;;;;;;;0.70;0.40;;;21.50;52.30;;;;;;6198275;28;20500;-66
2022/05/24 08:05:33;;;;;;;0.38;0.32;;;21.50;52.40;;;;;;6198115;28;20061;-66
2022/05/24 08:08:34;;;;;;;0.60;0.50;;;21.50;52.40;;;;;;6196812;28;20396;-66
2022/05/24 08:11:35;;;;;;;0.60;0.55;;;21.50;52.30;;;;;;6179492;28;20145;-66
2022/05/24 08:14:35;;;;;;;0.70;0.50;;;21.50;52.40;;;;;;6198159;28;20038;-66
2022/05/24 08:17:36;;;;;;;0.40;0.40;;;21.50;52.30;;;;;;6197970;28;20027;-66
2022/05/24 08:20:38;;;;;;;0.38;0.38;;;21.50;52.40;;;;;;6198211;28;20481;-66
2022/05/24 08:23:39;;;;;;;0.95;0.50;;;21.50;52.40;;;;;;6197596;28;20038;-67
2022/05/24 08:26:40;;;;;;;0.95;0.60;;;21.50;53.10;;;;;;6197935;28;20081;-66
2022/05/24 08:29:41;;;;;;;0.45;0.43;;;21.50;52.40;;;;;;6197414;28;20489;-66
2022/05/24 08:32:42;;;;;;;0.40;0.40;;;21.50;52.40;;;;;;6197545;28;20142;-66
2022/05/24 08:35:45;;;;;;;0.50;0.40;;;21.50;52.40;;;;;;6197720;28;20038;-66
2022/05/24 08:38:45;;;;;;;0.40;0.38;;;21.50;53.10;;;;;;6197774;28;20022;-66
2022/05/24 08:42:27;;;;;;;0.40;0.30;;;21.50;52.40;;;;;;6292068;28;20391;-68
2022/05/24 08:49:00;;;;;;;0.55;0.38;;;21.50;52.40;;;;;;6291746;28;20440;-67
2022/05/24 08:52:02;;;;;;;0.50;0.40;;;21.50;52.40;;;;;;6286793;28;20213;-67
2022/05/24 08:55:04;;;;;;;0.30;0.30;;;21.50;52.50;;;;;;6266670;28;20548;-67
2022/05/24 08:58:12;;;;;;;0.50;0.40;;;21.50;52.50;;;;;;6266897;28;20021;-67
2022/05/24 09:01:21;;;;;;;0.47;0.30;;;21.50;52.50;;;;;;6266615;28;20072;-67
2022/05/24 09:04:23;;;;;;;0.40;0.40;;;21.50;52.50;;;;;;6266666;28;20381;-68
2022/05/24 09:08:05;;;;;;;0.60;0.50;;;21.50;52.50;;;;;;6270057;28;20028;-68
2022/05/24 09:11:35;;;;;;;0.43;0.40;;;21.50;52.50;;;;;;6288351;28;20071;-67
2022/05/24 09:14:54;;;;;;;0.68;0.40;;;21.50;52.50;;;;;;6279830;28;20480;-68
2022/05/24 09:18:14;;;;;;;0.30;0.30;;;21.50;52.50;;;;;;6291180;28;20467;-67
2022/05/24 09:21:29;;;;;;;0.57;0.43;;;21.50;52.50;;;;;;6289878;28;20077;-67
2022/05/24 09:24:44;;;;;;;0.88;0.32;;;21.50;52.50;;;;;;6291212;28;20024;-67
2022/05/24 09:27:53;;;;;;;0.32;0.32;;;21.50;52.50;;;;;;6290976;28;20056;-67
2022/05/24 09:30:57;;;;;;;0.60;0.40;;;21.50;52.50;;;;;;6289692;28;20028;-68
2022/05/24 09:34:19;;;;;;;0.68;0.40;;;21.50;52.60;;;;;;6289487;28;20025;-69
2022/05/24 09:37:23;;;;;;;0.38;0.38;;;21.50;52.50;;;;;;6290925;28;20517;-68
2022/05/24 09:40:24;;;;;;;0.40;0.30;;;21.50;52.50;;;;;;6290134;28;20526;-67
2022/05/24 09:43:33;;;;;;;0.30;0.30;;;21.50;52.50;;;;;;6290446;28;20021;-67
2022/05/24 09:46:36;;;;;;;0.32;0.30;;;21.50;52.50;;;;;;6290372;28;20017;-68
2022/05/24 09:49:37;;;;;;;0.30;0.30;;;21.50;52.40;;;;;;6290131;28;20066;-68
2022/05/24 09:52:37;;;;;;;0.40;0.40;;;21.50;52.50;;;;;;6276855;28;20037;-68
2022/05/24 09:55:51;;;;;;;0.45;0.40;;;21.50;52.50;;;;;;6272431;28;20082;-67
2022/05/24 09:59:01;;;;;;;1.23;0.40;;;21.50;52.50;;;;;;6273483;28;20612;-68
2022/05/24 10:02:25;;;;;;;0.40;0.40;;;21.50;52.50;;;;;;6273425;28;20017;-67
2022/05/24 10:05:26;;;;;;;0.55;0.38;;;21.50;52.50;;;;;;6273295;28;20569;-67
2022/05/24 10:08:26;;;;;;;0.22;0.22;;;21.50;52.50;;;;;;6273304;28;20036;-67
2022/05/24 10:11:58;;;;;;;0.43;0.40;;;21.50;52.50;;;;;;6273277;28;20064;-67
2022/05/24 10:15:10;;;;;;;0.30;0.30;;;21.50;52.50;;;;;;6271925;28;20064;-67
2022/05/24 10:18:27;;;;;;;0.60;0.40;;;21.50;52.50;;;;;;6273212;28;20025;-67
2022/05/24 10:21:58;;;;;;;0.60;0.40;;;21.50;52.50;;;;;;6272950;28;20028;-67
2022/05/24 10:25:17;;;;;;;0.50;0.40;;;21.50;52.50;;;;;;6272646;28;20029;-67
2022/05/24 10:28:40;;;;;;;0.30;0.30;;;21.50;53.20;;;;;;6271763;28;20036;-67
2022/05/24 10:31:54;;;;;;;0.30;0.30;;;21.50;52.50;;;;;;6272865;28;20385;-67
2022/05/24 10:38:22;;;;;;;0.80;0.47;;;21.50;52.50;;;;;;6272691;28;20033;-67
2022/05/24 10:41:29;;;;;;;0.30;0.30;;;21.40;52.50;;;;;;6272547;28;20080;-67
2022/05/24 10:44:51;;;;;;;0.60;0.40;;;21.50;52.50;;;;;;6272550;28;20104;-67
2022/05/24 10:48:04;;;;;;;0.30;0.30;;;21.50;52.50;;;;;;6272207;28;20067;-67
2022/05/24 10:51:18;;;;;;;0.30;0.30;;;21.50;52.50;;;;;;6271047;28;20385;-67
2022/05/24 10:54:34;;;;;;;0.50;0.40;;;21.50;52.50;;;;;;6249695;28;20029;-67
2022/05/24 10:57:41;;;;;;;0.30;0.30;;;21.50;52.50;;;;;;6247439;28;20025;-67
2022/05/24 11:00:52;;;;;;;0.40;0.30;;;21.50;52.50;;;;;;6247696;28;20026;-67
2022/05/24 11:03:58;;;;;;;0.43;0.40;;;21.50;52.50;;;;;;6246217;28;20122;-67
2022/05/24 11:07:06;;;;;;;0.30;0.30;;;21.50;52.50;;;;;;6247436;28;20025;-67
2022/05/24 11:10:19;;;;;;;0.30;0.30;;;21.50;52.50;;;;;;6272276;28;20033;-67
2022/05/24 11:13:44;;;;;;;0.40;0.40;;;21.50;52.50;;;;;;6271049;28;20095;-67
2022/05/24 11:16:47;;;;;;;0.30;0.30;;;21.50;52.50;;;;;;6271648;28;20398;-67
2022/05/24 11:19:54;;;;;;;0.30;0.30;;;21.50;52.50;;;;;;6271880;28;20044;-67
2022/05/24 11:23:10;;;;;;;0.25;0.25;;;21.50;52.50;;;;;;6271491;28;20031;-67
2022/05/24 11:26:17;;;;;;;0.50;0.30;;;21.50;52.50;;;;;;6271601;28;20021;-68
2022/05/24 11:29:28;;;;;;;0.40;0.40;;;21.50;52.50;;;;;;6271701;28;20107;-67
2022/05/24 11:32:38;;;;;;;0.47;0.40;;;21.50;52.50;;;;;;6269707;28;20080;-67
2022/05/24 11:35:45;;;;;;;0.30;0.30;;;21.50;52.50;;;;;;6271197;28;20512;-67
2022/05/24 11:38:47;;;;;;;0.28;0.28;;;21.50;52.50;;;;;;6271326;28;20147;-67
2022/05/24 11:41:48;;;;;;;0.30;0.22;;;21.50;52.50;;;;;;6271012;28;20041;-67
2022/05/24 11:44:51;;;;;;;0.13;0.13;;;21.40;52.40;;;;;;6271345;28;20091;-67
2022/05/24 11:48:06;;;;;;;0.30;0.30;;;21.50;52.50;;;;;;6269631;28;20021;-67
2022/05/24 11:51:41;;;;;;;0.25;0.20;;;21.50;52.50;;;;;;6269839;28;20025;-67
2022/05/24 11:54:48;;;;;;;0.70;0.38;;;21.50;52.50;;;;;;6245127;28;20030;-67
2022/05/24 11:57:50;;;;;;;0.30;0.30;;;21.50;52.50;;;;;;6252652;28;20366;-67
2022/05/24 12:01:16;;;;;;;0.30;0.30;;;21.50;52.60;;;;;;6269433;28;20052;-67
2022/05/24 12:07:56;;;;;;;0.38;0.38;;;21.50;52.50;;;;;;6271260;28;20021;-67
2022/05/24 12:11:29;;;;;;;0.30;0.30;;;21.50;52.60;;;;;;6270531;28;20530;-67
2022/05/24 12:14:30;;;;;;;0.25;0.25;;;21.50;52.50;;;;;;6269964;28;20478;-68
2022/05/24 12:17:30;;;;;;;0.32;0.20;;;21.50;52.50;;;;;;6270709;28;20063;-67
2022/05/24 12:20:34;;;;;;;0.50;0.30;;;21.40;52.50;;;;;;6270470;28;20057;-67
2022/05/24 12:23:38;;;;;;;0.50;0.40;;;21.50;52.50;;;;;;6270350;28;20075;-67
2022/05/24 12:27:18;;;;;;;0.30;0.30;;;21.50;52.50;;;;;;6270502;28;20094;-68
2022/05/24 12:30:31;;;;;;;0.30;0.30;;;21.50;52.50;;;;;;6270289;28;20063;-67
2022/05/24 12:33:37;;;;;;;0.28;0.28;;;21.50;52.60;;;;;;6268384;28;20024;-67
2022/05/24 12:36:39;;;;;;;0.20;0.20;;;21.50;52.60;;;;;;6270332;28;20081;-67
2022/05/24 12:39:39;;;;;;;0.30;0.30;;;21.50;52.60;;;;;;6269803;28;20116;-67
2022/05/24 12:42:46;;;;;;;0.30;0.30;;;21.50;52.60;;;;;;6270332;28;20029;-67
2022/05/24 12:45:47;;;;;;;0.60;0.45;;;21.50;52.60;;;;;;6270115;28;20017;-67
2022/05/24 12:48:50;;;;;;;0.30;0.30;;;21.50;52.60;;;;;;6270305;28;20029;-68
2022/05/24 12:52:00;;;;;;;0.30;0.30;;;21.50;52.60;;;;;;6270098;28;20036;-67
2022/05/24 12:55:04;;;;;;;0.45;0.30;;;21.50;52.60;;;;;;6269912;28;20042;-67
2022/05/24 12:58:09;;;;;;;0.32;0.20;;;21.40;52.50;;;;;;6270207;28;20029;-67
2022/05/24 13:01:21;;;;;;;0.28;0.28;;;21.50;52.60;;;;;;6268419;28;20017;-67
2022/05/24 13:04:27;;;;;;;0.20;0.20;;;21.40;52.50;;;;;;6268316;28;20057;-68
2022/05/24 13:07:59;;;;;;;0.20;0.20;;;21.50;52.60;;;;;;6268534;28;20013;-67
2022/05/24 13:11:00;;;;;;;0.30;0.30;;;21.50;52.60;;;;;;6269376;28;20044;-67
2022/05/24 13:14:02;;;;;;;0.65;0.30;;;21.40;52.50;;;;;;6270018;28;20036;-67
2022/05/24 13:17:08;;;;;;;0.30;0.30;;;21.50;52.60;;;;;;6268488;28;20135;-67
2022/05/24 13:20:24;;;;;;;0.30;0.30;;;21.50;52.60;;;;;;6267977;28;20509;-67
2022/05/24 13:23:40;;;;;;;0.30;0.30;;;21.50;52.60;;;;;;6269375;28;20024;-68
2022/05/24 13:26:58;;;;;;;0.25;0.25;;;21.50;52.60;;;;;;6271119;28;20021;-68
2022/05/24 13:33:33;;;;;;;0.20;0.20;;;21.50;52.60;;;;;;6274307;28;20525;-70
2022/05/24 13:36:41;;;;;;;0.30;0.30;;;21.50;52.60;;;;;;6274335;28;20029;-70
2022/05/24 13:39:42;;;;;;;0.30;0.22;;;21.50;52.60;;;;;;6273848;28;20115;-69
2022/05/24 13:42:55;;;;;;;0.52;0.10;;;21.50;52.60;;;;;;6272735;28;20027;-70
2022/05/24 13:46:16;;;;;;;0.20;0.20;;;21.50;52.70;;;;;;6274125;28;20024;-69
2022/05/24 13:49:36;;;;;;;0.20;0.20;;;21.50;52.60;;;;;;6273940;28;20045;-70
2022/05/24 13:52:54;;;;;;;0.30;0.30;;;21.40;52.50;;;;;;6265293;28;20025;-70
2022/05/24 13:55:58;;;;;;;0.20;0.20;;;21.50;52.70;;;;;;6247776;28;20052;-70
2022/05/24 13:59:21;;;;;;;0.30;0.30;;;21.50;52.60;;;;;;6249082;28;20024;-69
2022/05/24 14:02:23;;;;;;;0.20;0.20;;;21.50;52.60;;;;;;6249326;28;20025;-70
2022/05/24 14:05:31;;;;;;;0.30;0.30;;;21.50;52.60;;;;;;6247680;28;20026;-70
2022/05/24 14:08:34;;;;;;;0.30;0.30;;;21.50;52.70;;;;;;6260689;28;20025;-70
2022/05/24 14:11:45;;;;;;;0.25;0.25;;;21.50;52.60;;;;;;6273482;28;20155;-70
2022/05/24 14:14:46;;;;;;;0.35;0.20;;;21.50;52.60;;;;;;6273560;28;20029;-70
2022/05/24 14:17:48;;;;;;;0.20;0.20;;;21.50;52.60;;;;;;6271874;28;20394;-70
2022/05/24 14:20:49;;;;;;;0.38;0.38;;;21.50;52.70;;;;;;6273530;28;20017;-70
2022/05/24 14:23:50;;;;;;;0.47;0.40;;;21.50;52.70;;;;;;6271403;28;20028;-69
2022/05/24 14:26:56;;;;;;;0.25;0.25;;;21.50;52.60;;;;;;6273216;28;20406;-70
2022/05/24 14:29:57;;;;;;;0.20;0.20;;;21.50;52.60;;;;;;6271654;28;20123;-70
2022/05/24 14:33:00;;;;;;;0.40;0.35;;;21.50;52.70;;;;;;6271863;28;20112;-70
2022/05/24 14:36:01;;;;;;;0.40;0.40;;;21.50;52.70;;;;;;6271622;28;20119;-70
2022/05/24 14:39:02;;;;;;;0.32;0.32;;;21.50;52.70;;;;;;6272327;28;20025;-70
2022/05/24 14:42:03;;;;;;;0.30;0.30;;;21.50;52.70;;;;;;6272756;28;20025;-70
2022/05/24 14:45:04;;;;;;;0.50;0.47;;;21.50;52.70;;;;;;6271353;28;20061;-70
2022/05/24 14:48:05;;;;;;;0.20;0.20;;;21.50;52.70;;;;;;6271303;28;20536;-70
2022/05/24 14:51:06;;;;;;;0.30;0.30;;;21.50;52.70;;;;;;6271265;28;20075;-70
2022/05/24 14:54:07;;;;;;;0.35;0.30;;;21.50;52.70;;;;;;6272451;28;20613;-70
2022/05/24 14:57:08;;;;;;;0.25;0.25;;;21.50;52.70;;;;;;6272692;28;20025;-70
2022/05/24 15:00:09;;;;;;;0.20;0.20;;;21.50;52.70;;;;;;6272511;28;20036;-69
2022/05/24 15:03:10;;;;;;;0.30;0.30;;;21.50;52.70;;;;;;6272302;28;20336;-70
2022/05/24 15:06:11;;;;;;;0.40;0.32;;;21.50;52.70;;;;;;6270641;28;20061;-70
2022/05/24 15:15:51;;;;;;;0.30;0.30;;;21.50;52.70;;;;;;6271913;28;20104;-70
2022/05/24 15:18:52;;;;;;;0.20;0.20;;;21.50;52.70;;;;;;6271950;28;20059;-70
2022/05/24 15:21:53;;;;;;;1.00;0.28;;;21.40;52.60;;;;;;6271816;28;20036;-70
2022/05/24 15:24:53;;;;;;;0.30;0.30;;;21.50;52.70;;;;;;6271626;28;20017;-69
2022/05/24 15:27:56;;;;;;;0.20;0.20;;;21.50;52.70;;;;;;6272044;28;20025;-70
2022/05/24 15:30:56;;;;;;;0.30;0.30;;;21.40;52.60;;;;;;6270605;28;20032;-69
2022/05/24 15:33:57;;;;;;;0.22;0.22;;;21.40;52.60;;;;;;6270231;28;20072;-70
2022/05/24 15:36:58;;;;;;;0.40;0.40;;;21.50;52.70;;;;;;6271201;28;20025;-70
2022/05/24 15:39:58;;;;;;;0.35;0.30;;;21.50;52.70;;;;;;6271136;28;20041;-70
2022/05/24 15:43:00;;;;;;;0.30;0.30;;;21.50;52.70;;;;;;6271278;28;20390;-68
2022/05/24 15:46:01;;;;;;;0.38;0.30;;;21.50;52.70;;;;;;6270393;28;20027;-71
2022/05/24 15:49:02;;;;;;;0.35;0.35;;;21.40;52.60;;;;;;6269528;28;20383;-70
2022/05/24 15:52:04;;;;;;;0.28;0.28;;;21.40;52.60;;;;;;6269856;28;20478;-69
2022/05/24 15:55:05;;;;;;;0.57;0.35;;;21.40;52.60;;;;;;6271268;28;20545;-70
2022/05/24 15:58:06;;;;;;;0.30;0.30;;;21.40;52.60;;;;;;6271118;28;20017;-70
2022/05/24 16:01:09;;;;;;;0.22;0.22;;;21.40;52.60;;;;;;6269677;28;20036;-69
2022/05/24 16:04:10;;;;;;;0.30;0.25;;;21.40;52.60;;;;;;6269369;28;20543;-69
2022/05/24 16:10:30;;;;;;;0.30;0.30;;;21.40;52.60;;;;;;6270793;28;20040;-72
2022/05/24 16:13:33;;;;;;;0.38;0.30;;;21.40;52.60;;;;;;6270850;28;20151;-72
2022/05/24 16:16:38;;;;;;;0.38;0.30;;;21.40;52.60;;;;;;6270550;28;20023;-71
2022/05/24 16:19:39;;;;;;;0.32;0.30;;;21.50;52.70;;;;;;6268726;28;20025;-71
2022/05/24 16:22:42;;;;;;;0.40;0.40;;;21.50;52.70;;;;;;6267209;28;20021;-70
2022/05/24 16:25:43;;;;;;;0.40;0.40;;;21.50;52.70;;;;;;6267329;28;20027;-71
2022/05/24 16:28:48;;;;;;;0.30;0.30;;;21.40;52.60;;;;;;6268344;28;20021;-72
2022/05/24 16:31:49;;;;;;;0.40;0.40;;;21.40;52.60;;;;;;6268511;28;20025;-72
2022/05/24 16:34:49;;;;;;;0.30;0.30;;;21.40;52.60;;;;;;6268119;28;20036;-72
2022/05/24 16:37:51;;;;;;;0.40;0.40;;;21.40;52.60;;;;;;6268458;28;20537;-72
2022/05/24 16:40:51;;;;;;;0.40;0.40;;;21.40;52.60;;;;;;6266897;28;20052;-72
2022/05/24 16:43:52;;;;;;;0.52;0.45;;;21.40;52.60;;;;;;6267227;28;20048;-72
2022/05/24 16:46:53;;;;;;;0.20;0.20;;;21.50;52.80;;;;;;6267034;28;20048;-71
2022/05/24 16:49:53;;;;;;;0.30;0.30;;;21.50;52.70;;;;;;6268366;28;20087;-72
2022/05/24 16:52:54;;;;;;;0.30;0.30;;;21.50;52.70;;;;;;6268424;28;20493;-72
2022/05/24 16:59:27;;;;;;;0.20;0.20;;;21.40;52.60;;;;;;6266563;28;20071;-72
2022/05/24 17:02:28;;;;;;;0.40;0.35;;;21.40;52.70;;;;;;6261530;28;20039;-72